< Cyclone 198607 1986 Season Cyclone 198609 >
Cyclone 198608 (SELWYN)
General InformationTrack Information on Google MapsDetailed Wind InformationList of All Images || ResourceGoogle EarthGE AnimationAtom FeedGeoJSON
Detalied Best Track (Time Zone = UTC)
Year Month Day Hour Lat. Long. Pressure (hPa) Wind (kt) Class Image Chart
1986 2 21 06 -13.3 114.3 1003 23 2 Image --
1986 2 21 12 -13.9 114.5 1002 25 2 Image --
1986 2 21 18 -14.2 114.8 1001 27 2 Image --
1986 2 22 00 -14.7 114.9 1001 27 2 Image --
1986 2 22 06 -15.3 114.8 1000 31 2 Image --
1986 2 22 12 -15.7 114.3 998 33 2 Image --
1986 2 22 18 -16.0 113.7 996 37 3 Image --
1986 2 23 00 -16.6 113.0 992 43 3 Image --
1986 2 23 06 -17.4 112.4 990 47 3 Image --
1986 2 23 12 -18.1 111.7 986 53 4 Image --
1986 2 23 18 -18.8 110.9 980 60 4 Image --
1986 2 24 00 -19.0 110.0 980 60 4 Image --
1986 2 24 06 -19.8 108.9 980 60 4 Image --
1986 2 24 12 -20.6 108.0 984 54 4 Image --
1986 2 24 18 -21.2 107.3 990 47 3 Image --
1986 2 25 00 -21.8 106.9 990 47 3 Image --
1986 2 25 06 -22.4 106.5 995 39 3 Image --
1986 2 25 12 -22.9 106.2 998 35 3 Image --
1986 2 25 18 -23.5 106.1 998 35 3 Image --
1986 2 26 00 -23.9 106.2 1000 31 2 Image --
1986 2 26 06 -24.1 106.3 1002 25 2 Image --
< Cyclone 198607 1986 Season Cyclone 198609 >

Help